CheckWX is a tool to help pilots better visualize weather data.  It is not intended as a substitute for an official pre-flight weather briefing.

21:02:01 UTC

KPTK METAR
Oakland County International Airport
Pontiac, Michigan, USA
Current

9 mins ago

KPTK 232053Z 12013G19KT 10SM OVC018 03/M03 A2994 RMK AO2 SLP148 T00281033 56039
Observed
Feb-23 @ 20:53 UTC
Wind
  • 120° at 13 KTS
  • Gusting to 19 KTS
Visibility
10 SM
Flight Rules
MVFR
Cloud Levels
  • Overcast at 1,800' AGL
Temperature
C / 37°F
Dewpoint
-3°C / 27°F
Humidity
65%
Altimeter
29.94" Hg
Pressure
1014.8 hPa
Previous

1 hour ago

KPTK 231953Z 11013KT 10SM BKN026 OVC050 03/M04 A2995 RMK AO2 SLP154 T00281039
Observed
Feb-23 @ 19:53 UTC
Wind
  • 110° at 13 KTS
Visibility
10 SM
Flight Rules
MVFR
Cloud Levels
  • Broken at 2,600' AGL
  • Overcast at 5,000' AGL
Temperature
C / 37°F
Dewpoint
-4°C / 25°F
Humidity
60%
Altimeter
29.95" Hg
Pressure
1015.4 hPa
Previous

2 hours ago

KPTK 231906Z 12012KT 10SM BKN024 OVC048 03/M04 A2999 RMK AO2 T00281039
Observed
Feb-23 @ 19:06 UTC
Wind
  • 120° at 12 KTS
Visibility
10 SM
Flight Rules
MVFR
Cloud Levels
  • Broken at 2,400' AGL
  • Overcast at 4,800' AGL
Temperature
C / 37°F
Dewpoint
-4°C / 25°F
Humidity
60%
Altimeter
29.99" Hg
Pressure
1015.62 hPa